Time;durP1;ratioP1;P1;durP2;ratioP2;P2;SDS_P1;SDS_P2;PMS_P1;PMS_P2;Temp;Humidity;BMP_temperature;BMP_pressure;BME280_temperature;BME280_humidity;BME280_pressure;Samples;Min_cycle;Max_cycle;Signal;HPM_P1;HPM_P2
2022/03/30 00:01:09;;;;;;;28.95;13.20;;;;;;;15.53;37.53;100951.91;5052586;28;20373;-71
2022/03/30 00:03:34;;;;;;;31.92;13.88;;;;;;;15.47;37.31;100950.22;5052428;28;20041;-71
2022/03/30 00:06:00;;;;;;;29.70;14.45;;;;;;;15.57;37.13;100955.75;5050042;28;20052;-71
2022/03/30 00:08:25;;;;;;;32.70;15.25;;;;;;;15.64;37.62;100950.97;5052069;28;20400;-70
2022/03/30 00:10:51;;;;;;;26.60;14.13;;;;;;;15.63;37.29;100956.59;5052041;28;20397;-69
2022/03/30 00:13:17;;;;;;;32.38;15.63;;;;;;;15.88;36.82;100948.72;5052381;28;20029;-70
2022/03/30 00:15:43;;;;;;;33.50;16.08;;;;;;;15.78;37.08;100949.44;5050480;28;20040;-69
2022/03/30 00:18:08;;;;;;;30.77;14.63;;;;;;;15.67;37.09;100952.31;5051940;28;20102;-70
2022/03/30 00:20:34;;;;;;;36.75;15.30;;;;;;;15.66;37.08;100937.94;5051582;28;20040;-70
2022/03/30 00:22:59;;;;;;;28.38;14.25;;;;;;;15.22;38.44;100940.97;5051025;28;20053;-71
2022/03/30 00:25:25;;;;;;;35.85;15.70;;;;;;;15.72;37.22;100926.09;5051626;28;20024;-71
2022/03/30 00:27:50;;;;;;;31.08;14.25;;;;;;;15.63;37.12;100930.34;5051194;28;20044;-68
2022/03/30 00:30:19;;;;;;;44.53;15.35;;;;;;;15.39;37.78;100933.59;5051188;28;20060;-70
2022/03/30 00:32:44;;;;;;;31.20;14.45;;;;;;;15.57;37.46;100931.38;5051016;28;20039;-70
2022/03/30 00:35:10;;;;;;;32.53;15.20;;;;;;;15.70;37.27;100927.44;5050100;28;20033;-70
2022/03/30 00:37:36;;;;;;;34.28;14.65;;;;;;;15.47;37.89;100936.69;5051591;28;20098;-70
2022/03/30 00:40:05;;;;;;;38.97;16.52;;;;;;;15.45;37.83;100928.00;5050954;28;20052;-70
2022/03/30 00:42:31;;;;;;;35.13;14.70;;;;;;;15.15;38.99;100932.22;5051031;28;20044;-71
2022/03/30 00:44:57;;;;;;;36.85;16.40;;;;;;;15.33;38.13;100929.97;5049632;28;20128;-69
2022/03/30 00:47:26;;;;;;;30.38;13.98;;;;;;;15.57;37.67;100930.53;5051390;28;20056;-70
2022/03/30 00:49:52;;;;;;;40.97;16.15;;;;;;;15.60;38.17;100919.22;5051824;28;20033;-71
2022/03/30 00:52:20;;;;;;;32.75;15.25;;;;;;;15.43;38.49;100919.31;5051974;28;20491;-70
2022/03/30 00:54:49;;;;;;;38.45;15.50;;;;;;;15.80;37.47;100914.00;5051965;28;20037;-72
2022/03/30 00:57:17;;;;;;;32.53;15.85;;;;;;;15.65;37.91;100920.06;5052092;28;20089;-73
2022/03/30 00:59:43;;;;;;;45.03;16.52;;;;;;;15.46;38.39;100913.38;5051941;28;20040;-73
2022/03/30 01:02:09;;;;;;;27.20;13.27;;;;;;;15.65;38.20;100909.22;5052079;28;20060;-71
2022/03/30 01:04:35;;;;;;;33.88;15.15;;;;;;;15.62;38.06;100909.75;5052733;28;20140;-71
2022/03/30 01:07:02;;;;;;;29.70;14.82;;;;;;;15.71;37.69;100913.63;5051821;28;20168;-73
2022/03/30 01:09:28;;;;;;;32.95;16.02;;;;;;;15.89;37.22;100909.72;5051614;28;20034;-73
2022/03/30 01:11:55;;;;;;;33.15;15.02;;;;;;;15.37;38.59;100905.94;5051851;28;20064;-71
2022/03/30 01:14:22;;;;;;;25.05;14.75;;;;;;;15.93;37.63;100910.84;5052278;28;20102;-71
2022/03/30 01:16:47;;;;;;;43.53;16.15;;;;;;;16.04;36.85;100907.13;5052081;28;20104;-71
2022/03/30 01:19:13;;;;;;;31.30;15.10;;;;;;;15.80;37.73;100889.59;5052530;28;20083;-71
2022/03/30 01:21:40;;;;;;;31.85;16.33;;;;;;;16.03;37.14;100897.38;5051250;28;20121;-72
2022/03/30 01:24:08;;;;;;;34.10;14.77;;;;;;;15.68;37.76;100903.28;5051466;28;20037;-71
2022/03/30 01:26:34;;;;;;;29.58;14.00;;;;;;;15.93;37.09;100899.16;5051645;28;20025;-72
2022/03/30 01:29:01;;;;;;;31.20;16.48;;;;;;;15.72;37.87;100892.78;5050563;28;20049;-70
2022/03/30 01:34:11;;;;;;;40.80;14.88;;;;;;;16.03;36.61;100885.69;5052248;28;20075;-72
2022/03/30 01:36:37;;;;;;;28.45;15.75;;;;;;;16.13;36.74;100889.31;5051601;28;20037;-71
2022/03/30 01:39:03;;;;;;;32.15;15.07;;;;;;;15.79;37.46;100886.06;5052176;28;20112;-72
2022/03/30 01:41:32;;;;;;;30.65;15.38;;;;;;;15.97;37.18;100875.91;5051728;28;20132;-73
2022/03/30 01:43:58;;;;;;;26.40;15.02;;;;;;;16.08;36.95;100877.63;5051593;28;20108;-72
2022/03/30 01:46:24;;;;;;;36.45;15.90;;;;;;;16.12;36.95;100871.41;5052324;28;20041;-71
2022/03/30 01:48:50;;;;;;;36.20;15.80;;;;;;;16.01;37.15;100867.00;5051940;28;20047;-73
2022/03/30 01:51:15;;;;;;;34.13;15.15;;;;;;;16.13;36.87;100861.38;5051833;28;20037;-72
2022/03/30 01:53:41;;;;;;;34.05;16.92;;;;;;;16.06;36.99;100858.88;5051510;28;20021;-71
2022/03/30 01:56:07;;;;;;;30.58;15.32;;;;;;;16.22;36.59;100862.50;5051753;28;20417;-71
2022/03/30 01:58:32;;;;;;;45.05;14.90;;;;;;;16.05;36.75;100865.41;5051975;28;20075;-70
2022/03/30 02:00:58;;;;;;;33.65;15.60;;;;;;;16.14;36.88;100852.16;5051740;28;20423;-71
2022/03/30 02:03:25;;;;;;;27.95;14.60;;;;;;;15.91;37.26;100856.06;5051741;28;20118;-72
2022/03/30 02:05:51;;;;;;;33.53;13.13;;;;;;;16.09;36.90;100857.56;5051418;28;20037;-71
2022/03/30 02:08:17;;;;;;;31.52;15.20;;;;;;;16.06;37.08;100850.75;5051344;28;20033;-73
2022/03/30 02:10:42;;;;;;;31.50;14.68;;;;;;;16.16;36.55;100850.00;5051468;28;20429;-71
2022/03/30 02:13:07;;;;;;;32.17;14.48;;;;;;;15.91;37.53;100844.41;5052399;28;20067;-73
2022/03/30 02:15:33;;;;;;;27.35;13.43;;;;;;;16.24;36.51;100849.50;5050844;28;20461;-72
2022/03/30 02:17:59;;;;;;;21.88;12.93;;;;;;;15.91;37.27;100844.41;5051520;28;20440;-72
2022/03/30 02:20:25;;;;;;;36.67;15.70;;;;;;;16.25;36.37;100849.28;5050402;28;20037;-72
2022/03/30 02:22:50;;;;;;;31.92;14.32;;;;;;;16.12;36.70;100854.31;5053791;28;20063;-73
2022/03/30 02:25:15;;;;;;;25.73;13.85;;;;;;;16.33;36.18;100846.03;5055679;28;20085;-70
2022/03/30 02:27:41;;;;;;;32.22;14.25;;;;;;;16.13;36.56;100837.81;5054722;28;20120;-71
2022/03/30 02:30:08;;;;;;;32.35;15.07;;;;;;;16.26;36.39;100831.09;5054624;28;20445;-70
2022/03/30 02:32:34;;;;;;;25.35;13.90;;;;;;;16.34;36.11;100830.59;5054435;28;20033;-70
2022/03/30 02:34:59;;;;;;;28.10;14.23;;;;;;;16.46;36.04;100826.59;5054519;28;22190;-69
2022/03/30 02:37:24;;;;;;;27.15;14.32;;;;;;;16.36;36.14;100828.44;5054574;28;20465;-70
2022/03/30 02:39:50;;;;;;;30.88;14.07;;;;;;;16.38;36.48;100818.13;5054258;28;20041;-70
2022/03/30 02:42:15;;;;;;;28.85;14.57;;;;;;;16.29;36.38;100822.44;5054264;28;20140;-71
2022/03/30 02:44:41;;;;;;;34.28;14.40;;;;;;;16.47;36.07;100813.84;5054303;28;20063;-69
2022/03/30 02:47:07;;;;;;;31.42;14.98;;;;;;;16.09;36.56;100809.59;5053772;28;20040;-70
2022/03/30 02:49:33;;;;;;;26.73;12.30;;;;;;;16.17;36.36;100803.66;5054712;28;20515;-70
2022/03/30 02:51:59;;;;;;;30.90;14.82;;;;;;;16.29;36.39;100803.47;5053910;28;20048;-70
2022/03/30 02:54:24;;;;;;;32.50;14.50;;;;;;;16.32;36.30;100805.63;5053876;28;20528;-69
2022/03/30 02:56:50;;;;;;;32.03;15.23;;;;;;;16.37;36.50;100801.03;5053920;28;20397;-70
2022/03/30 02:59:16;;;;;;;33.95;15.15;;;;;;;16.00;36.99;100789.44;5053557;28;20041;-69
2022/03/30 03:01:41;;;;;;;33.90;15.13;;;;;;;16.07;36.59;100791.94;5053920;28;20041;-70
2022/03/30 03:04:07;;;;;;;37.63;16.42;;;;;;;15.87;37.50;100783.69;5053662;28;20028;-68
2022/03/30 03:06:32;;;;;;;29.13;13.35;;;;;;;16.00;36.78;100789.44;5053345;28;20053;-70
2022/03/30 03:08:58;;;;;;;26.63;13.25;;;;;;;15.70;37.42;100781.94;5052932;28;20040;-69
2022/03/30 03:11:24;;;;;;;35.38;15.60;;;;;;;15.96;36.81;100776.69;5053287;28;20090;-69
2022/03/30 03:13:51;;;;;;;31.75;15.48;;;;;;;15.49;37.67;100780.16;5053479;28;20039;-69
2022/03/30 03:16:16;;;;;;;26.67;14.13;;;;;;;15.71;37.48;100777.34;5054428;28;20384;-70
2022/03/30 03:18:42;;;;;;;28.73;14.02;;;;;;;15.84;36.79;100772.28;5053466;28;20026;-69
2022/03/30 03:21:08;;;;;;;24.63;13.05;;;;;;;15.75;36.81;100770.31;5052583;28;20041;-70
2022/03/30 03:23:33;;;;;;;31.73;14.90;;;;;;;15.37;37.71;100768.66;5053181;28;20384;-70
2022/03/30 03:25:59;;;;;;;29.45;14.55;;;;;;;15.37;37.72;100763.22;5053397;28;20071;-69
2022/03/30 03:28:24;;;;;;;27.77;14.75;;;;;;;15.59;36.86;100766.69;5053755;28;20079;-71
2022/03/30 03:30:50;;;;;;;30.88;14.38;;;;;;;15.38;36.96;100756.75;5053446;28;20037;-69
2022/03/30 03:33:15;;;;;;;31.23;13.98;;;;;;;15.11;37.73;100755.16;5053141;28;20124;-69
2022/03/30 03:35:41;;;;;;;32.53;15.35;;;;;;;15.00;38.13;100764.25;5052986;28;20037;-70
2022/03/30 03:38:08;;;;;;;27.58;13.65;;;;;;;14.34;40.31;100763.53;5052688;28;20053;-70
2022/03/30 03:40:35;;;;;;;31.65;15.50;;;;;;;14.51;39.94;100766.16;5053447;28;20024;-71
2022/03/30 03:43:01;;;;;;;35.28;15.35;;;;;;;14.64;39.71;100755.75;5052917;28;20038;-69
2022/03/30 03:45:27;;;;;;;26.67;14.00;;;;;;;14.41;40.07;100760.59;5052273;28;20050;-70
2022/03/30 03:47:53;;;;;;;29.55;15.65;;;;;;;14.66;39.17;100756.31;5052878;28;20505;-70
2022/03/30 03:50:18;;;;;;;32.28;15.40;;;;;;;14.72;39.21;100749.88;5052894;28;20045;-72
2022/03/30 03:52:44;;;;;;;29.67;14.98;;;;;;;14.62;39.19;100749.78;5052516;28;20526;-72
2022/03/30 03:55:11;;;;;;;33.00;14.40;;;;;;;14.73;39.09;100762.34;5053137;28;20020;-69
2022/03/30 03:57:41;;;;;;;38.22;14.40;;;;;;;14.86;39.36;100758.41;5052829;28;20056;-69
2022/03/30 04:00:08;;;;;;;33.92;15.00;;;;;;;14.47;39.61;100760.44;5052442;28;20064;-70
2022/03/30 04:02:34;;;;;;;33.28;14.90;;;;;;;14.55;40.09;100751.88;5051686;28;20408;-70
2022/03/30 04:04:59;;;;;;;30.63;13.88;;;;;;;14.38;40.47;100758.44;5047990;28;20033;-70
2022/03/30 04:07:24;;;;;;;24.00;12.85;;;;;;;14.45;39.60;100753.63;5032960;28;20033;-70
2022/03/30 04:09:50;;;;;;;31.40;15.05;;;;;;;14.43;39.62;100759.31;5033001;28;20117;-70
2022/03/30 04:12:15;;;;;;;36.88;14.65;;;;;;;14.38;40.46;100758.44;5063824;28;20033;-70
2022/03/30 04:14:41;;;;;;;33.95;15.55;;;;;;;14.35;40.54;100758.94;5032114;28;20413;-69
2022/03/30 04:17:06;;;;;;;39.65;15.68;;;;;;;14.64;40.08;100749.53;5038553;28;20136;-69
2022/03/30 04:19:32;;;;;;;31.52;15.15;;;;;;;14.02;41.61;100757.13;5031947;28;20247;-71
2022/03/30 04:21:57;;;;;;;30.00;15.15;;;;;;;14.52;40.67;100743.47;5049745;28;20546;-71
2022/03/30 04:24:22;;;;;;;30.30;14.52;;;;;;;14.61;40.70;100737.34;5051193;28;20037;-70
2022/03/30 04:26:48;;;;;;;29.60;14.93;;;;;;;14.98;39.84;100740.13;5049631;28;20025;-71
2022/03/30 04:29:13;;;;;;;35.00;15.77;;;;;;;14.82;40.37;100741.06;5051574;28;20495;-71
2022/03/30 04:31:39;;;;;;;40.05;16.98;;;;;;;15.20;39.50;100740.06;5051871;28;20042;-69
2022/03/30 04:34:05;;;;;;;33.47;16.65;;;;;;;15.10;39.62;100743.50;5051380;28;20029;-70
2022/03/30 04:36:30;;;;;;;29.80;15.45;;;;;;;15.36;39.01;100747.25;5049713;28;20049;-69
2022/03/30 04:38:55;;;;;;;39.80;16.75;;;;;;;15.17;39.45;100738.72;5051355;28;20068;-70
2022/03/30 04:41:22;;;;;;;40.50;18.60;;;;;;;15.32;39.28;100736.13;5050782;28;20037;-71
2022/03/30 04:43:48;;;;;;;32.75;15.43;;;;;;;15.37;39.32;100740.78;5051435;28;20078;-69
2022/03/30 04:46:13;;;;;;;40.97;17.90;;;;;;;14.70;41.48;100738.50;5052135;28;20107;-69
2022/03/30 04:48:39;;;;;;;32.88;17.38;;;;;;;15.02;40.41;100727.72;5052299;28;20103;-70
2022/03/30 04:51:05;;;;;;;34.35;16.27;;;;;;;14.94;40.68;100731.72;5051054;28;20501;-69
2022/03/30 04:53:31;;;;;;;31.80;16.13;;;;;;;15.32;40.33;100727.19;5051609;28;20037;-69
2022/03/30 04:55:56;;;;;;;26.67;16.05;;;;;;;15.39;40.39;100730.50;5052351;28;20078;-70
2022/03/30 04:58:22;;;;;;;36.92;16.88;;;;;;;15.44;40.29;100733.25;5052133;28;20057;-71
2022/03/30 05:00:48;;;;;;;41.70;19.38;;;;;;;14.98;41.24;100732.03;5052399;28;20652;-71
2022/03/30 05:03:13;;;;;;;36.72;18.70;;;;;;;15.16;41.27;100733.53;5052104;28;20127;-69
2022/03/30 05:05:39;;;;;;;34.22;17.20;;;;;;;15.45;40.23;100733.00;5051850;28;20091;-71
2022/03/30 05:08:04;;;;;;;40.53;17.42;;;;;;;15.67;39.79;100731.00;5051872;28;20037;-70
2022/03/30 05:10:30;;;;;;;39.60;17.98;;;;;;;15.75;39.64;100729.69;5050515;28;20041;-71
2022/03/30 05:12:55;;;;;;;32.50;17.00;;;;;;;15.81;39.55;100734.06;5051457;28;20119;-71
2022/03/30 05:15:23;;;;;;;34.92;16.42;;;;;;;15.91;39.24;100728.69;5051440;28;20033;-69
2022/03/30 05:17:49;;;;;;;45.55;18.65;;;;;;;15.65;40.26;100732.31;5051573;28;20033;-70
2022/03/30 05:20:17;;;;;;;30.77;16.92;;;;;;;15.12;41.93;100730.53;5051502;28;20037;-70
2022/03/30 05:22:45;;;;;;;37.28;17.98;;;;;;;15.25;41.50;100723.88;5050611;28;20105;-69
2022/03/30 05:25:15;;;;;;;33.53;17.30;;;;;;;15.77;40.40;100725.63;5050464;28;20078;-71
2022/03/30 05:27:42;;;;;;;34.67;16.90;;;;;;;15.82;40.28;100733.00;5049860;28;20037;-70
2022/03/30 05:30:09;;;;;;;38.55;17.17;;;;;;;16.25;39.04;100726.44;5049656;28;20052;-71
2022/03/30 05:32:35;;;;;;;33.30;15.00;;;;;;;15.71;40.90;100726.69;5047842;28;20072;-70
2022/03/30 05:35:02;;;;;;;37.10;18.30;;;;;;;16.33;39.39;100726.72;5049664;28;20044;-70
2022/03/30 05:37:28;;;;;;;32.05;16.98;;;;;;;16.54;38.88;100731.19;5048214;28;20029;-70
2022/03/30 05:39:54;;;;;;;37.92;17.70;;;;;;;16.40;38.95;100735.44;5047834;28;20040;-70
2022/03/30 05:42:21;;;;;;;43.25;18.25;;;;;;;16.57;38.32;100727.09;5049574;28;20586;-71
2022/03/30 05:44:47;;;;;;;34.08;18.17;;;;;;;16.67;38.35;100727.94;5048449;28;20029;-71
2022/03/30 05:47:14;;;;;;;29.00;16.55;;;;;;;16.74;38.10;100730.41;5050865;28;20056;-70
2022/03/30 05:49:40;;;;;;;43.58;17.30;;;;;;;16.59;38.82;100720.31;5031606;28;20477;-69
2022/03/30 05:52:06;;;;;;;30.92;15.85;;;;;;;16.85;38.11;100723.09;5030281;28;20041;-70
2022/03/30 05:54:31;;;;;;;36.30;17.10;;;;;;;16.79;38.21;100724.16;5049235;28;20087;-70
2022/03/30 05:57:00;;;;;;;29.50;15.48;;;;;;;16.17;38.87;100718.78;5051781;28;20037;-71
2022/03/30 05:59:29;;;;;;;30.63;15.50;;;;;;;16.71;37.82;100727.44;5054687;28;20148;-72
2022/03/30 06:01:55;;;;;;;28.85;15.73;;;;;;;16.78;37.74;100725.25;5055438;28;20063;-73
2022/03/30 06:04:21;;;;;;;32.75;14.95;;;;;;;16.93;37.08;100720.66;5055130;28;20465;-71
2022/03/30 06:06:46;;;;;;;33.70;16.35;;;;;;;16.76;37.30;100719.28;5054558;28;20045;-71
2022/03/30 06:09:12;;;;;;;30.23;14.05;;;;;;;16.80;37.00;100723.91;5054299;28;20546;-71
2022/03/30 06:11:37;;;;;;;31.73;15.85;;;;;;;16.75;36.79;100720.34;5045513;28;20033;-71
2022/03/30 06:14:03;;;;;;;36.80;17.52;;;;;;;15.67;39.57;100728.28;5046302;28;20064;-71
2022/03/30 06:16:29;;;;;;;34.10;14.70;;;;;;;16.67;37.58;100724.41;5052597;28;20025;-72
2022/03/30 06:18:55;;;;;;;27.40;15.90;;;;;;;16.73;36.93;100731.47;5054040;28;20041;-71
2022/03/30 06:21:21;;;;;;;39.88;16.70;;;;;;;16.37;37.65;100732.44;5053308;28;20041;-70
2022/03/30 06:23:47;;;;;;;32.58;15.88;;;;;;;16.21;37.79;100730.75;5053842;28;20029;-72
2022/03/30 06:26:12;;;;;;;32.88;14.32;;;;;;;16.77;36.89;100726.31;5054060;28;20033;-71
2022/03/30 06:28:38;;;;;;;32.90;17.13;;;;;;;14.72;41.94;100733.66;5054312;28;20029;-73
2022/03/30 06:31:03;;;;;;;32.92;15.02;;;;;;;14.47;43.26;100730.69;5054000;28;20025;-71
2022/03/30 06:33:29;;;;;;;35.22;15.65;;;;;;;15.07;42.93;100733.22;5053379;28;20045;-71
2022/03/30 06:35:55;;;;;;;31.25;14.70;;;;;;;14.11;45.81;100734.00;5053544;28;20044;-72
2022/03/30 06:38:21;;;;;;;34.85;14.55;;;;;;;15.22;43.40;100727.09;5053984;28;20045;-71
2022/03/30 06:40:47;;;;;;;31.27;15.05;;;;;;;15.13;42.90;100729.47;5051202;28;20159;-73
2022/03/30 06:43:13;;;;;;;29.33;13.00;;;;;;;15.56;42.90;100737.44;5049474;28;20100;-71
2022/03/30 06:45:39;;;;;;;32.20;12.00;;;;;;;14.47;45.19;100729.88;5049883;28;20056;-71
2022/03/30 06:48:05;;;;;;;47.60;12.75;;;;;;;15.64;42.93;100728.00;5049234;28;20123;-72
2022/03/30 06:50:32;;;;;;;18.50;10.52;;;;;;;16.31;41.66;100733.50;5050242;28;20041;-74
2022/03/30 06:52:58;;;;;;;18.98;10.43;;;;;;;16.39;41.09;100735.69;5050412;28;20033;-72
2022/03/30 06:55:25;;;;;;;19.15;10.18;;;;;;;15.37;43.28;100736.16;5051097;28;20033;-72
2022/03/30 06:57:50;;;;;;;17.17;8.68;;;;;;;16.32;41.41;100729.69;5049890;28;20044;-72
2022/03/30 07:00:17;;;;;;;17.73;8.45;;;;;;;16.45;41.22;100734.66;5050510;28;20063;-72
2022/03/30 07:02:43;;;;;;;17.70;6.85;;;;;;;16.14;41.41;100722.84;5049191;28;20044;-71
2022/03/30 07:05:09;;;;;;;12.00;6.50;;;;;;;16.39;40.75;100722.94;5049579;28;20091;-73
2022/03/30 07:10:20;;;;;;;8.55;3.97;;;;;;;15.98;41.36;100723.84;5047333;28;20548;-73
2022/03/30 07:12:47;;;;;;;7.82;4.32;;;;;;;16.79;39.64;100716.00;5048878;28;20041;-72
2022/03/30 07:15:15;;;;;;;10.95;4.88;;;;;;;16.72;39.13;100721.72;5048806;28;20546;-73
2022/03/30 07:17:55;;;;;;;4.40;3.35;;;;;;;16.69;39.46;100724.97;5048572;28;20421;-72
2022/03/30 07:20:22;;;;;;;7.30;3.75;;;;;;;17.30;37.90;100715.78;5042900;28;20061;-72
2022/03/30 07:22:49;;;;;;;4.82;3.42;;;;;;;17.19;38.20;100718.78;5046607;28;20119;-72
2022/03/30 07:25:16;;;;;;;4.97;2.70;;;;;;;16.98;38.26;100719.88;5047014;28;20028;-73
2022/03/30 07:27:44;;;;;;;6.25;2.78;;;;;;;17.32;38.07;100716.34;5047687;28;20124;-71
2022/03/30 07:30:11;;;;;;;4.85;3.22;;;;;;;16.98;38.05;100717.16;5047409;28;20032;-71
2022/03/30 07:32:39;;;;;;;6.38;3.72;;;;;;;17.35;37.97;100714.97;5047608;28;20085;-71
2022/03/30 07:35:06;;;;;;;4.55;3.15;;;;;;;17.62;37.55;100701.94;5049121;28;20062;-71
2022/03/30 07:37:31;;;;;;;6.30;2.90;;;;;;;17.91;36.88;100704.84;5049498;28;20052;-72
2022/03/30 07:39:58;;;;;;;4.82;2.72;;;;;;;18.25;35.66;100701.19;5048412;28;20663;-70
2022/03/30 07:42:23;;;;;;;3.83;2.40;;;;;;;17.24;36.77;100699.75;5046406;28;20052;-72
2022/03/30 07:44:49;;;;;;;4.75;2.28;;;;;;;17.54;36.81;100695.16;5048939;28;20123;-72
2022/03/30 07:47:14;;;;;;;3.42;2.40;;;;;;;16.65;38.80;100685.88;5049169;28;20025;-74
2022/03/30 07:49:39;;;;;;;2.92;2.30;;;;;;;16.54;38.61;100689.66;5045645;28;20029;-73
2022/03/30 07:52:05;;;;;;;4.20;2.97;;;;;;;17.75;36.32;100689.69;5047440;28;20124;-71
2022/03/30 07:54:31;;;;;;;6.20;2.13;;;;;;;18.05;35.84;100684.94;5048170;28;20135;-72
2022/03/30 07:56:57;;;;;;;5.97;2.70;;;;;;;18.05;35.47;100679.50;5047823;28;20124;-70
2022/03/30 07:59:22;;;;;;;3.75;2.65;;;;;;;18.82;34.32;100676.13;5048496;28;20473;-73
2022/03/30 08:01:48;;;;;;;7.53;2.58;;;;;;;18.37;35.74;100674.47;5048281;28;20029;-72
2022/03/30 08:04:14;;;;;;;5.18;2.55;;;;;;;18.83;34.38;100676.94;5048350;28;20635;-71
2022/03/30 08:06:40;;;;;;;7.63;2.58;;;;;;;18.85;34.54;100680.19;5043963;28;20040;-70
2022/03/30 08:09:05;;;;;;;3.10;2.53;;;;;;;19.32;33.83;100677.59;5050869;28;20037;-71
2022/03/30 08:11:31;;;;;;;4.38;2.20;;;;;;;18.90;33.95;100669.25;5051283;28;20037;-72
2022/03/30 08:13:58;;;;;;;5.30;2.75;;;;;;;18.26;35.17;100678.31;5051703;28;20037;-72
2022/03/30 08:16:23;;;;;;;5.85;2.65;;;;;;;19.30;33.79;100677.88;5051728;28;20033;-71
2022/03/30 08:18:49;;;;;;;5.75;2.28;;;;;;;18.00;36.18;100684.97;5050179;28;20051;-74
2022/03/30 08:23:58;;;;;;;4.47;2.38;;;;;;;18.45;35.67;100681.25;5047342;28;20083;-72
2022/03/30 08:26:24;;;;;;;3.22;2.05;;;;;;;18.63;34.15;100685.22;5050914;28;20771;-70
2022/03/30 08:28:49;;;;;;;3.10;1.73;;;;;;;16.24;38.09;100693.06;5050959;28;20052;-73
2022/03/30 08:31:16;;;;;;;3.58;1.60;;;;;;;16.69;36.90;100689.69;5051303;28;20043;-71
2022/03/30 08:33:41;;;;;;;3.05;2.20;;;;;;;18.00;34.82;100682.25;5050698;28;20501;-71
2022/03/30 08:36:07;;;;;;;3.63;1.67;;;;;;;17.21;35.37;100689.44;5050511;28;20047;-71
2022/03/30 08:38:33;;;;;;;2.67;1.27;;;;;;;18.88;32.21;100680.44;5050780;28;20064;-70
2022/03/30 08:40:59;;;;;;;1.95;1.40;;;;;;;18.88;32.59;100680.44;5050304;28;20025;-71
2022/03/30 08:43:29;;;;;;;3.42;1.20;;;;;;;18.52;32.99;100676.31;5051057;28;20036;-71
2022/03/30 08:45:56;;;;;;;4.20;1.23;;;;;;;17.90;34.01;100678.75;5051091;28;20059;-71
2022/03/30 08:48:22;;;;;;;1.45;1.00;;;;;;;17.12;35.09;100691.09;5050705;28;20095;-71
2022/03/30 08:50:49;;;;;;;1.90;1.35;;;;;;;17.52;34.77;100672.88;5050175;28;20037;-70
2022/03/30 08:53:15;;;;;;;1.60;1.25;;;;;;;17.89;33.75;100677.13;5050939;28;20033;-72
2022/03/30 08:55:41;;;;;;;2.08;1.08;;;;;;;18.75;31.90;100681.03;5048710;28;20036;-72
2022/03/30 08:58:06;;;;;;;1.65;1.08;;;;;;;16.79;35.49;100683.44;5049772;28;20396;-71
2022/03/30 09:00:34;;;;;;;3.33;1.25;;;;;;;17.17;35.02;100689.19;5049982;28;20052;-72
2022/03/30 09:03:00;;;;;;;2.97;1.38;;;;;;;17.12;35.32;100688.38;5049234;28;20390;-72
2022/03/30 09:05:39;;;;;;;2.47;1.30;;;;;;;17.36;34.31;100686.72;5049817;28;20635;-71
2022/03/30 09:08:20;;;;;;;2.22;1.45;;;;;;;17.97;33.64;100681.97;5049648;28;20036;-70
2022/03/30 09:10:47;;;;;;;;;;;;;;;18.08;32.99;100687.09;5050207;28;20496;-71
2022/03/30 09:13:14;;;;;;;2.92;1.42;;;;;;;17.83;33.47;100684.47;5050257;28;20295;-71
2022/03/30 09:15:40;;;;;;;2.38;1.52;;;;;;;17.81;33.19;100688.59;5049456;28;20472;-72
2022/03/30 09:18:07;;;;;;;2.65;1.30;;;;;;;18.20;32.69;100687.59;5049880;28;20052;-72
2022/03/30 09:20:36;;;;;;;3.72;1.92;;;;;;;17.70;33.83;100685.06;5050254;28;20037;-73
2022/03/30 09:23:02;;;;;;;6.28;2.38;;;;;;;17.27;34.40;100691.91;5050305;28;20056;-72
2022/03/30 09:25:30;;;;;;;2.30;1.63;;;;;;;18.04;33.07;100679.78;5050598;28;20455;-73
2022/03/30 09:27:58;;;;;;;1.83;1.65;;;;;;;17.46;33.98;100678.56;5050432;28;20134;-72
2022/03/30 09:30:26;;;;;;;4.35;1.92;;;;;;;18.01;33.17;100686.59;5049978;28;20199;-74
2022/03/30 09:32:53;;;;;;;3.15;2.22;;;;;;;16.42;35.11;100686.34;5054266;28;20033;-71
2022/03/30 09:35:24;;;;;;;2.60;1.98;;;;;;;16.04;35.75;100681.34;5054505;28;20040;-72
2022/03/30 09:38:09;;;;;;;3.28;1.65;;;;;;;17.68;32.71;100678.28;5053747;28;20048;-71
2022/03/30 09:40:37;;;;;;;5.50;1.58;;;;;;;17.59;32.42;100679.94;5054393;28;20465;-72
2022/03/30 09:43:22;;;;;;;2.30;2.10;;;;;;;18.96;30.56;100668.94;5052166;28;20048;-70
2022/03/30 09:45:51;;;;;;;2.75;1.40;;;;;;;18.83;30.98;100672.28;5054288;28;20048;-72
2022/03/30 09:48:24;;;;;;;2.42;1.48;;;;;;;19.56;29.56;100675.75;5052562;28;20086;-72
2022/03/30 09:50:53;;;;;;;1.30;1.20;;;;;;;18.56;30.79;100671.94;5052182;28;20045;-71
2022/03/30 09:53:24;;;;;;;2.45;1.80;;;;;;;17.54;32.51;100667.16;5053996;28;20028;-71
2022/03/30 09:56:10;;;;;;;2.67;1.70;;;;;;;18.12;31.25;100669.13;5048803;28;20037;-71
2022/03/30 09:58:38;;;;;;;3.03;1.60;;;;;;;19.12;29.91;100666.91;4990343;28;20490;-72
2022/03/30 10:01:10;;;;;;;1.35;1.25;;;;;;;16.94;32.51;100668.03;4991709;28;20046;-71
2022/03/30 10:03:53;;;;;;;3.28;1.25;;;;;;;17.85;30.08;100657.81;4987946;28;20073;-73
2022/03/30 10:06:22;;;;;;;3.20;1.50;;;;;;;18.81;29.00;100660.84;4988951;28;20208;-72
2022/03/30 10:08:51;;;;;;;1.23;1.13;;;;;;;19.58;27.90;100662.66;4989515;28;20391;-70
2022/03/30 10:11:17;;;;;;;1.23;1.13;;;;;;;18.75;29.15;100658.47;4990693;28;20043;-72
2022/03/30 10:13:48;;;;;;;1.17;1.08;;;;;;;19.17;28.28;100672.28;4992049;28;20513;-73
2022/03/30 10:16:14;;;;;;;2.50;1.15;;;;;;;17.91;30.28;100669.50;4989062;28;20475;-73
2022/03/30 10:18:40;;;;;;;2.08;1.00;;;;;;;19.65;27.65;100660.41;4974713;28;20054;-70
2022/03/30 10:21:27;;;;;;;4.60;1.77;;;;;;;19.16;28.46;100665.22;4991426;28;20074;-70
2022/03/30 10:24:02;;;;;;;2.15;1.17;;;;;;;16.22;32.90;100664.56;4992076;28;20164;-73
2022/03/30 10:26:39;;;;;;;1.75;1.15;;;;;;;19.05;29.79;100661.75;4987221;28;20030;-74
2022/03/30 10:29:09;;;;;;;2.47;1.00;;;;;;;17.85;30.04;100671.41;4991931;28;20048;-75
2022/03/30 10:31:35;;;;;;;1.90;1.45;;;;;;;17.94;30.24;100663.50;4991644;28;20041;-74
2022/03/30 10:34:27;;;;;;;2.25;1.15;;;;;;;17.32;30.65;100663.91;4990949;28;20038;-76
2022/03/30 10:37:30;;;;;;;1.58;1.20;;;;;;;19.11;28.17;100657.91;5048571;28;20524;-75
2022/03/30 10:40:04;;;;;;;5.60;1.33;;;;;;;19.74;27.36;100649.66;4952284;28;20098;-76
2022/03/30 10:42:53;;;;;;;2.85;1.17;;;;;;;19.93;26.51;100642.38;4947330;28;20085;-75
2022/03/30 10:45:30;;;;;;;3.85;1.20;;;;;;;20.09;26.74;100650.03;4947956;28;20081;-74
2022/03/30 10:48:41;;;;;;;2.33;1.50;;;;;;;19.95;26.63;100640.16;4951288;28;20039;-73
2022/03/30 10:51:15;;;;;;;3.55;1.40;;;;;;;19.46;27.13;100628.72;4947444;28;20496;-73
2022/03/30 10:53:50;;;;;;;3.58;1.70;;;;;;;20.20;26.92;100636.31;4950941;28;20526;-75
2022/03/30 10:56:15;;;;;;;1.90;1.40;;;;;;;21.36;25.71;100640.75;4950550;28;20203;-74
2022/03/30 10:58:50;;;;;;;2.05;1.70;;;;;;;19.16;27.62;100633.31;4951331;28;20115;-73
2022/03/30 11:01:22;;;;;;;1.45;1.20;;;;;;;18.89;28.62;100627.59;4952542;28;20398;-73
2022/03/30 11:04:18;;;;;;;2.75;1.08;;;;;;;20.02;25.61;100635.16;4951717;28;20173;-75
2022/03/30 11:06:53;;;;;;;1.88;1.15;;;;;;;21.17;24.79;100632.59;4951411;28;20582;-73
2022/03/30 11:09:25;;;;;;;4.25;1.30;;;;;;;21.45;24.27;100625.28;4950972;28;20031;-74
2022/03/30 11:11:58;;;;;;;4.30;1.58;;;;;;;20.90;24.91;100632.50;4951413;28;20054;-75
2022/03/30 11:14:32;;;;;;;4.97;1.75;;;;;;;21.13;24.46;100631.59;4951362;28;20496;-74
2022/03/30 11:17:00;;;;;;;5.07;2.05;;;;;;;20.81;25.25;100628.84;5015049;28;20148;-73
2022/03/30 11:19:30;;;;;;;2.42;1.50;;;;;;;20.83;25.49;100623.91;5051926;28;20376;-75
2022/03/30 11:22:12;;;;;;;1.60;1.40;;;;;;;19.73;26.89;100615.31;5051996;28;20254;-74
2022/03/30 11:24:43;;;;;;;7.47;1.98;;;;;;;20.60;25.64;100620.16;5051697;28;20029;-72